Alpler-1 — TC8812 — position and weather

sailwx.info

Track history (hours):
 
Tides and Currents Weather Stations Pressure Air Temp Water Temp Dewpoint Dewpoint Depression Visibility Wind Speed Wind Dir Waves Ship Positions

Alpler-1

Last reported at 2017-Sep-11 12:11 UTC. Time now 2017-Sep-25 15:12 UTC.
Position N 36°32' E 032°00'.
Warning: this ship's position is 14 days out of date.

Length 29 m.

Type: Passenger vessel. MMSI: 271041161.

Date/timePositionNaut miles runAvg speedWind from/ knotsBaromVisibWave heightAir tempDewpointWater temp
2017-Sep-11 12:11N 36°32' E 032°00'1 5.9
2017-Sep-11 12:00N 36°32' E 031°59'1 3.0
2017-Sep-11 11:30N 36°32' E 031°57'1 0.6
2017-Sep-11 09:27N 36°33' E 031°57'2 3.5
2017-Sep-11 08:46N 36°32' E 031°59'0 0.0
2017-Sep-10 15:04N 36°32' E 031°59'0 0.1
2017-Sep-10 14:58N 36°32' E 031°59'1 0.4
2017-Sep-10 11:36N 36°31' E 031°59'2 7.2
2017-Sep-10 11:23N 36°32' E 031°57'2 5.6
2017-Sep-10 10:56N 36°34' E 031°55'0 0.0
2017-Sep-10 10:26N 36°34' E 031°55'2 1.1
2017-Sep-10 08:51N 36°33' E 031°57'2 5.4
2017-Sep-10 08:29N 36°32' E 031°59'1 0.1
2017-Sep-09 17:51N 36°32' E 031°60'1 2.5
2017-Sep-09 17:28N 36°32' E 031°59'4 7.3
2017-Sep-09 16:58N 36°34' E 031°55'0 0.6
2017-Sep-09 16:30N 36°34' E 031°55'0 0.0
2017-Sep-09 15:57N 36°34' E 031°55'3 6.3
2017-Sep-09 15:30N 36°33' E 031°58'1 2.0
2017-Sep-09 15:00N 36°32' E 031°59'2 0.6
2017-Sep-09 11:12N 36°32' E 031°56'2 7.5
2017-Sep-09 11:00N 36°33' E 031°55'1 1.4
2017-Sep-09 10:28N 36°34' E 031°55'4 2.0
2017-Sep-09 08:42N 36°33' E 031°59'4 0.2
2017-Sep-08 10:59N 36°34' E 031°55'0 0.0
2017-Sep-08 10:29N 36°34' E 031°55'  
2017-Sep-05 12:06N 36°32' E 031°59'0 0.8
2017-Sep-05 11:57N 36°32' E 031°59'1 0.4
2017-Sep-05 09:16N 36°33' E 031°59'0 1.2
2017-Sep-05 08:54N 36°33' E 031°59'1 0.0
2017-Sep-04 12:32N 36°32' E 032°00'0 0.0
2017-Sep-04 12:29N 36°32' E 032°00'1 1.5
2017-Sep-04 11:53N 36°32' E 031°59'3 7.6
2017-Sep-04 11:30N 36°33' E 031°56'1 1.8
2017-Sep-04 10:48N 36°34' E 031°55'0 0.0
2017-Sep-04 10:30N 36°34' E 031°55'0 0.0
2017-Sep-04 10:00N 36°34' E 031°55'1 1.5
2017-Sep-04 09:08N 36°33' E 031°57'1 7.0
2017-Sep-04 08:56N 36°33' E 031°58'1 2.2
2017-Sep-04 08:26N 36°32' E 031°59'  
Track history (hours):
 
Tides and Currents Weather Stations Pressure Air Temp Water Temp Dewpoint Dewpoint Depression Visibility Wind Speed Wind Dir Waves Ship Positions

Alpler-1

Last reported at 2017-Sep-11 12:11 UTC. Time now 2017-Sep-25 15:12 UTC.
Position N 36°32' E 032°00'.
Warning: this ship's position is 14 days out of date.

Length 29 m.

Type: Passenger vessel. MMSI: 271041161.

Date/timePositionNaut miles runAvg speedWind from/ knotsBaromVisibWave heightAir tempDewpointWater temp
2017-Sep-11 12:11N 36°32' E 032°00'1 5.9
2017-Sep-11 12:00N 36°32' E 031°59'1 3.0
2017-Sep-11 11:30N 36°32' E 031°57'1 0.6
2017-Sep-11 09:27N 36°33' E 031°57'2 3.5
2017-Sep-11 08:46N 36°32' E 031°59'0 0.0
2017-Sep-10 15:04N 36°32' E 031°59'0 0.1
2017-Sep-10 14:58N 36°32' E 031°59'1 0.4
2017-Sep-10 11:36N 36°31' E 031°59'2 7.2
2017-Sep-10 11:23N 36°32' E 031°57'2 5.6
2017-Sep-10 10:56N 36°34' E 031°55'0 0.0
2017-Sep-10 10:26N 36°34' E 031°55'2 1.1
2017-Sep-10 08:51N 36°33' E 031°57'2 5.4
2017-Sep-10 08:29N 36°32' E 031°59'1 0.1
2017-Sep-09 17:51N 36°32' E 031°60'1 2.5
2017-Sep-09 17:28N 36°32' E 031°59'4 7.3
2017-Sep-09 16:58N 36°34' E 031°55'0 0.6
2017-Sep-09 16:30N 36°34' E 031°55'0 0.0
2017-Sep-09 15:57N 36°34' E 031°55'3 6.3
2017-Sep-09 15:30N 36°33' E 031°58'1 2.0
2017-Sep-09 15:00N 36°32' E 031°59'2 0.6
2017-Sep-09 11:12N 36°32' E 031°56'2 7.5
2017-Sep-09 11:00N 36°33' E 031°55'1 1.4
2017-Sep-09 10:28N 36°34' E 031°55'4 2.0
2017-Sep-09 08:42N 36°33' E 031°59'4 0.2
2017-Sep-08 10:59N 36°34' E 031°55'0 0.0
2017-Sep-08 10:29N 36°34' E 031°55'  
2017-Sep-05 12:06N 36°32' E 031°59'0 0.8
2017-Sep-05 11:57N 36°32' E 031°59'1 0.4
2017-Sep-05 09:16N 36°33' E 031°59'0 1.2
2017-Sep-05 08:54N 36°33' E 031°59'1 0.0
2017-Sep-04 12:32N 36°32' E 032°00'0 0.0
2017-Sep-04 12:29N 36°32' E 032°00'1 1.5
2017-Sep-04 11:53N 36°32' E 031°59'3 7.6
2017-Sep-04 11:30N 36°33' E 031°56'1 1.8
2017-Sep-04 10:48N 36°34' E 031°55'0 0.0
2017-Sep-04 10:30N 36°34' E 031°55'0 0.0
2017-Sep-04 10:00N 36°34' E 031°55'1 1.5
2017-Sep-04 09:08N 36°33' E 031°57'1 7.0
2017-Sep-04 08:56N 36°33' E 031°58'1 2.2
2017-Sep-04 08:26N 36°32' E 031°59'  

Dump ship's entire track history